Time;durP1;ratioP1;P1;durP2;ratioP2;P2;SDS_P1;SDS_P2;PMS_P1;PMS_P2;Temp;Humidity;BMP_temperature;BMP_pressure;BME280_temperature;BME280_humidity;BME280_pressure;Samples;Min_cycle;Max_cycle;Signal;HPM_P1;HPM_P2
2022/01/17 00:01:34;;;;;;;111.10;47.20;;;;;;;-2.87;nan;-23733.63;5047629;28;20185;-74
2022/01/17 00:03:59;;;;;;;103.00;46.57;;;;;;;-1.95;nan;-23759.91;5051883;28;20202;-72
2022/01/17 00:06:25;;;;;;;102.77;46.17;;;;;;;-2.48;nan;-23744.69;5047977;28;20195;-71
2022/01/17 00:08:51;;;;;;;100.63;47.47;;;;;;;-2.14;nan;-23754.31;5050070;28;20187;-73
2022/01/17 00:11:18;;;;;;;101.53;46.90;;;;;;;-1.98;nan;-23759.03;5032832;28;20553;-73
2022/01/17 00:13:45;;;;;;;105.53;48.43;;;;;;;-2.48;nan;-23744.81;5048940;28;20738;-73
2022/01/17 00:21:05;;;;;;;109.07;48.30;;;;;;;-2.00;nan;-23758.31;5050157;28;20183;-72
2022/01/17 00:23:31;;;;;;;109.30;49.90;;;;;;;-2.08;nan;-23756.16;5034254;28;20190;-71
2022/01/17 00:25:57;;;;;;;106.87;50.00;;;;;;;-2.28;nan;-23750.44;5050324;28;20191;-72
2022/01/17 00:28:22;;;;;;;106.50;48.73;;;;;;;-2.44;nan;-23745.97;5033969;28;20183;-72
2022/01/17 00:30:48;;;;;;;109.83;50.97;;;;;;;-2.38;nan;-23747.56;5051451;28;20185;-73
2022/01/17 00:33:14;;;;;;;107.17;49.30;;;;;;;-1.87;nan;-23762.19;5046782;28;20212;-71
2022/01/17 00:35:39;;;;;;;105.93;49.47;;;;;;;-2.19;nan;-23753.00;5051685;28;20326;-72
2022/01/17 00:38:05;;;;;;;107.00;49.60;;;;;;;-2.02;nan;-23757.91;5045854;28;20297;-74
2022/01/17 00:40:31;;;;;;;99.40;48.87;;;;;;;-2.41;nan;-23746.84;5051899;28;20221;-73
2022/01/17 00:42:56;;;;;;;109.30;50.60;;;;;;;-2.04;nan;-23757.19;5045183;28;20174;-73
2022/01/17 00:45:27;;;;;;;107.33;49.63;;;;;;;-2.39;nan;-23747.25;5052056;28;20189;-72
2022/01/17 00:47:55;;;;;;;107.37;49.43;;;;;;;-2.22;nan;-23752.00;5032915;28;20561;-72
2022/01/17 00:50:25;;;;;;;98.70;48.63;;;;;;;-2.46;nan;-23745.25;5051800;28;20266;-73
2022/01/17 00:52:50;;;;;;;97.90;46.97;;;;;;;-2.13;nan;-23754.75;5044941;28;20687;-72
2022/01/17 00:55:16;;;;;;;102.67;47.80;;;;;;;-2.07;nan;-23756.47;5051690;28;20204;-74
2022/01/17 00:57:41;;;;;;;98.63;48.50;;;;;;;-2.41;nan;-23746.69;5042982;28;20686;-73
2022/01/17 01:00:09;;;;;;;93.80;46.23;;;;;;;-2.65;nan;-23739.78;5044230;28;20217;-72
2022/01/17 01:02:35;;;;;;;100.67;47.37;;;;;;;-2.78;nan;-23736.34;5045226;28;20190;-74
2022/01/17 01:05:01;;;;;;;101.20;49.27;;;;;;;-2.31;nan;-23749.56;5051169;28;20178;-71
2022/01/17 01:07:29;;;;;;;100.90;47.40;;;;;;;-2.06;nan;-23756.75;5027117;28;20193;-73
2022/01/17 01:10:05;;;;;;;96.13;46.77;;;;;;;-2.58;nan;-23741.94;5044450;28;20883;-71
2022/01/17 01:12:31;;;;;;;100.23;47.27;;;;;;;-2.53;nan;-23743.25;5039846;28;20182;-71
2022/01/17 01:14:57;;;;;;;103.07;48.57;;;;;;;-2.54;nan;-23742.97;5051720;28;20264;-72
2022/01/17 01:17:47;;;;;;;100.37;48.67;;;;;;;-2.35;nan;-23748.41;5051227;28;20217;-72
2022/01/17 01:28:21;;;;;;;108.10;50.33;;;;;;;-2.61;nan;-23740.94;5043197;28;20193;-73
2022/01/17 01:30:50;;;;;;;103.93;47.13;;;;;;;-2.58;nan;-23741.81;5051183;28;20179;-72
2022/01/17 01:33:23;;;;;;;94.27;46.07;;;;;;;-2.41;nan;-23746.69;5049661;28;20183;-75
2022/01/17 01:35:50;;;;;;;96.97;45.03;;;;;;;-2.03;nan;-23757.59;5024410;28;20191;-72
2022/01/17 01:38:15;;;;;;;93.63;45.67;;;;;;;-1.97;nan;-23759.19;5049950;28;20233;-72
2022/01/17 01:40:41;;;;;;;92.30;43.17;;;;;;;-2.12;nan;-23755.03;5050488;28;20210;-72
2022/01/17 01:43:06;;;;;;;88.50;41.77;;;;;;;-2.45;nan;-23745.53;5050302;28;20255;-73
2022/01/17 01:45:33;;;;;;;95.37;46.30;;;;;;;-2.74;nan;-23737.50;5024213;28;20183;-74
2022/01/17 01:47:58;;;;;;;90.20;43.83;;;;;;;-2.30;nan;-23750.00;5036919;28;20262;-72
2022/01/17 01:50:24;;;;;;;92.33;45.23;;;;;;;-2.56;nan;-23742.38;5047354;28;20189;-73
2022/01/17 01:52:50;;;;;;;87.47;42.60;;;;;;;-2.61;nan;-23740.94;5050419;28;20304;-74
2022/01/17 01:55:20;;;;;;;88.67;43.53;;;;;;;-2.20;nan;-23752.72;5050391;28;20267;-74
2022/01/17 01:57:46;;;;;;;88.20;43.17;;;;;;;-2.28;nan;-23750.56;5025783;28;20356;-73
2022/01/17 02:00:13;;;;;;;78.33;39.83;;;;;;;-2.51;nan;-23743.81;5042426;28;20186;-72
2022/01/17 02:02:39;;;;;;;91.70;41.33;;;;;;;-2.45;nan;-23745.53;5044247;28;20261;-72
2022/01/17 02:05:05;;;;;;;81.70;40.67;;;;;;;-2.40;nan;-23746.97;5050487;28;20562;-73
2022/01/17 02:07:32;;;;;;;90.50;42.53;;;;;;;-3.21;nan;-23723.97;5051284;28;20205;-74
2022/01/17 02:09:57;;;;;;;92.20;42.27;;;;;;;-2.84;nan;-23734.63;5042853;28;20618;-74
2022/01/17 02:12:25;;;;;;;91.50;41.10;;;;;;;-2.78;nan;-23736.22;5044789;28;20186;-74
2022/01/17 02:14:50;;;;;;;87.67;42.43;;;;;;;-2.84;nan;-23734.47;5051130;28;20183;-73
2022/01/17 02:17:20;;;;;;;81.93;38.30;;;;;;;-2.38;nan;-23747.56;5054657;28;20213;-74
2022/01/17 02:19:46;;;;;;;88.40;41.17;;;;;;;-2.36;nan;-23748.28;5054582;28;20179;-74
2022/01/17 02:22:15;;;;;;;82.80;37.33;;;;;;;-2.76;nan;-23736.78;5054406;28;20257;-72
2022/01/17 02:24:41;;;;;;;80.87;39.87;;;;;;;-2.62;nan;-23740.81;5054325;28;20591;-75
2022/01/17 02:27:06;;;;;;;85.83;39.20;;;;;;;-2.90;nan;-23732.91;5053979;28;20258;-74
2022/01/17 02:29:31;;;;;;;86.70;41.27;;;;;;;-2.57;nan;-23742.09;5054178;28;20200;-73
2022/01/17 02:31:57;;;;;;;82.70;39.60;;;;;;;-2.95;nan;-23731.31;5054140;28;20170;-74
2022/01/17 02:34:23;;;;;;;84.50;41.50;;;;;;;-2.70;nan;-23738.50;5054254;28;20170;-73
2022/01/17 02:36:48;;;;;;;88.03;41.53;;;;;;;-2.71;nan;-23738.34;5053996;28;20194;-72
2022/01/17 02:39:15;;;;;;;89.90;41.53;;;;;;;-2.62;nan;-23740.66;5053817;28;20227;-74
2022/01/17 02:41:43;;;;;;;87.93;41.13;;;;;;;-2.98;nan;-23730.59;5054292;28;20665;-71
2022/01/17 02:44:08;;;;;;;79.63;37.90;;;;;;;-2.78;nan;-23736.34;5054069;28;20177;-72
2022/01/17 02:46:35;;;;;;;80.83;40.83;;;;;;;-2.82;nan;-23735.19;5054048;28;20171;-72
2022/01/17 02:49:02;;;;;;;86.30;40.20;;;;;;;-2.59;nan;-23741.53;5054016;28;20175;-74
2022/01/17 02:51:28;;;;;;;84.50;40.60;;;;;;;-2.75;nan;-23737.22;5053760;28;20163;-72
2022/01/17 02:53:55;;;;;;;73.97;38.20;;;;;;;-2.73;nan;-23737.78;5054045;28;20236;-73
2022/01/17 02:56:21;;;;;;;83.27;39.80;;;;;;;-2.99;nan;-23730.31;5051553;28;20269;-73
2022/01/17 02:58:47;;;;;;;83.43;40.33;;;;;;;-3.32;nan;-23720.81;5049152;28;20206;-73
2022/01/17 03:01:18;;;;;;;81.47;37.97;;;;;;;-3.26;nan;-23722.53;5053660;28;20183;-72
2022/01/17 03:03:44;;;;;;;81.73;38.43;;;;;;;-3.07;nan;-23727.88;5053994;28;20213;-74
2022/01/17 03:06:11;;;;;;;79.03;39.77;;;;;;;-3.07;nan;-23728.00;5053804;28;20243;-73
2022/01/17 03:08:37;;;;;;;78.10;39.80;;;;;;;-3.09;nan;-23727.44;5035549;28;20250;-74
2022/01/17 03:11:08;;;;;;;77.40;38.33;;;;;;;-3.11;nan;-23726.84;5053739;28;20190;-74
2022/01/17 03:13:36;;;;;;;82.33;42.03;;;;;;;-2.88;nan;-23733.31;5053547;28;20186;-73
2022/01/17 03:16:07;;;;;;;84.27;40.60;;;;;;;-3.15;nan;-23725.72;5053517;28;20543;-73
2022/01/17 03:18:36;;;;;;;80.27;39.90;;;;;;;-3.17;nan;-23725.13;5053492;28;20203;-72
2022/01/17 03:21:03;;;;;;;81.80;39.93;;;;;;;-3.34;nan;-23720.38;5053072;28;20182;-72
2022/01/17 03:23:29;;;;;;;76.53;38.30;;;;;;;-3.55;nan;-23714.34;5053355;28;20661;-74
2022/01/17 03:25:56;;;;;;;78.97;37.87;;;;;;;-3.42;nan;-23718.09;5053117;28;20175;-72
2022/01/17 03:28:22;;;;;;;71.70;35.97;;;;;;;-3.17;nan;-23725.13;5052808;28;20265;-72
2022/01/17 03:30:47;;;;;;;73.23;37.27;;;;;;;-3.61;nan;-23712.75;5053024;28;20652;-72
2022/01/17 03:33:15;;;;;;;72.23;36.57;;;;;;;-3.08;nan;-23727.72;5053378;28;20166;-73
2022/01/17 03:35:41;;;;;;;71.73;36.70;;;;;;;-3.38;nan;-23719.25;5052873;28;20260;-74
2022/01/17 03:38:08;;;;;;;74.13;36.07;;;;;;;-3.57;nan;-23713.91;5053002;28;20739;-75
2022/01/17 03:40:35;;;;;;;78.27;36.50;;;;;;;-3.53;nan;-23714.78;5034880;28;20275;-72
2022/01/17 03:43:00;;;;;;;73.40;37.20;;;;;;;-3.39;nan;-23718.81;5053301;28;20170;-71
2022/01/17 03:45:26;;;;;;;77.20;38.83;;;;;;;-3.29;nan;-23721.69;5052975;28;20163;-74
2022/01/17 03:47:52;;;;;;;74.33;37.67;;;;;;;-3.68;nan;-23710.75;5052716;28;20178;-72
2022/01/17 03:50:21;;;;;;;78.17;37.73;;;;;;;-3.12;nan;-23726.56;5052732;28;20175;-73
2022/01/17 03:52:48;;;;;;;71.70;37.20;;;;;;;-3.41;nan;-23718.38;5052683;28;20217;-71
2022/01/17 03:55:16;;;;;;;74.17;35.63;;;;;;;-3.46;nan;-23716.78;5034817;28;20179;-73
2022/01/17 03:57:43;;;;;;;69.63;34.70;;;;;;;-3.21;nan;-23724.13;5052275;28;20236;-72
2022/01/17 04:00:13;;;;;;;69.60;33.90;;;;;;;-3.28;nan;-23722.13;5052904;28;20185;-74
2022/01/17 04:02:39;;;;;;;65.97;34.07;;;;;;;-3.76;nan;-23708.31;5022255;28;20645;-74
2022/01/17 04:05:05;;;;;;;67.63;33.20;;;;;;;-3.34;nan;-23720.38;5052574;28;20203;-75
2022/01/17 04:07:30;;;;;;;69.60;32.60;;;;;;;-3.73;nan;-23709.31;5028027;28;20221;-74
2022/01/17 04:09:56;;;;;;;69.27;33.53;;;;;;;-3.35;nan;-23719.97;5052839;28;20653;-73
2022/01/17 04:12:21;;;;;;;69.63;33.90;;;;;;;-3.54;nan;-23714.63;5052452;28;20171;-72
2022/01/17 04:14:47;;;;;;;69.33;32.97;;;;;;;-3.52;nan;-23715.06;5052114;28;20174;-73
2022/01/17 04:17:12;;;;;;;70.53;33.53;;;;;;;-3.78;nan;-23707.72;5051933;28;20190;-72
2022/01/17 04:19:37;;;;;;;73.53;35.53;;;;;;;-3.60;nan;-23712.91;5034687;28;20263;-74
2022/01/17 04:22:04;;;;;;;70.67;35.37;;;;;;;-3.43;nan;-23717.81;5052252;28;20228;-71
2022/01/17 04:24:29;;;;;;;65.87;30.17;;;;;;;-3.55;nan;-23714.34;5041341;28;20171;-72
2022/01/17 04:26:55;;;;;;;69.30;33.77;;;;;;;-3.45;nan;-23717.22;5037010;28;20831;-74
2022/01/17 04:29:20;;;;;;;75.93;33.90;;;;;;;-3.29;nan;-23721.69;5037419;28;20584;-74
2022/01/17 04:31:47;;;;;;;65.13;30.63;;;;;;;-3.37;nan;-23719.38;5037818;28;20218;-74
2022/01/17 04:34:13;;;;;;;63.33;30.60;;;;;;;-3.61;nan;-23712.63;5037739;28;20175;-72
2022/01/17 04:36:38;;;;;;;65.40;31.30;;;;;;;-3.66;nan;-23711.19;5038337;28;20183;-73
2022/01/17 04:39:04;;;;;;;74.73;34.07;;;;;;;-3.93;nan;-23703.56;5036701;28;20273;-74
2022/01/17 04:41:38;;;;;;;55.37;29.30;;;;;;;-3.94;nan;-23703.13;5037530;28;20274;-73
2022/01/17 04:46:48;;;;;;;53.30;24.90;;;;;;;-4.06;nan;-23699.97;5037689;28;20201;-72
2022/01/17 04:49:14;;;;;;;57.37;25.73;;;;;;;-3.93;nan;-23703.56;5037122;28;20182;-74
2022/01/17 04:51:39;;;;;;;54.53;25.70;;;;;;;-3.79;nan;-23707.59;5035924;28;20607;-73
2022/01/17 04:56:49;;;;;;;63.33;26.70;;;;;;;-3.40;nan;-23718.66;5036429;28;20256;-74
2022/01/17 04:59:14;;;;;;;53.80;28.00;;;;;;;-3.44;nan;-23717.38;5037014;28;20270;-74
2022/01/17 05:01:40;;;;;;;56.83;28.10;;;;;;;-3.49;nan;-23716.06;5036747;28;20179;-74
2022/01/17 05:04:06;;;;;;;62.13;28.00;;;;;;;-3.44;nan;-23717.38;5036365;28;20332;-72
2022/01/17 05:06:31;;;;;;;53.50;28.33;;;;;;;-3.91;nan;-23704.00;5033418;28;20273;-73
2022/01/17 05:08:58;;;;;;;54.70;28.83;;;;;;;-3.44;nan;-23717.38;5037414;28;20649;-74
2022/01/17 05:11:28;;;;;;;60.47;28.00;;;;;;;-3.53;nan;-23714.78;5039253;28;20232;-73
2022/01/17 05:13:54;;;;;;;53.67;27.67;;;;;;;-3.95;nan;-23702.97;5044113;28;20293;-75
2022/01/17 05:16:20;;;;;;;52.50;26.93;;;;;;;-3.41;nan;-23718.22;5038330;28;20257;-74
2022/01/17 05:21:13;;;;;;;55.30;28.23;;;;;;;-3.46;nan;-23716.94;5050601;28;20179;-73
2022/01/17 05:23:40;;;;;;;59.13;29.27;;;;;;;-4.06;nan;-23699.97;5051224;28;20167;-75
2022/01/17 05:26:06;;;;;;;57.23;29.93;;;;;;;-3.47;nan;-23716.66;5050294;28;20640;-73
2022/01/17 05:28:31;;;;;;;61.60;28.83;;;;;;;-3.43;nan;-23717.66;5050683;28;20182;-75
2022/01/17 05:30:57;;;;;;;55.43;28.07;;;;;;;-3.96;nan;-23702.69;5050955;28;20638;-73
2022/01/17 05:33:22;;;;;;;59.80;30.13;;;;;;;-3.40;nan;-23718.66;5048193;28;20612;-73
2022/01/17 05:35:48;;;;;;;53.93;27.80;;;;;;;-3.44;nan;-23717.38;5045419;28;20186;-75
2022/01/17 05:38:13;;;;;;;53.50;26.90;;;;;;;-3.79;nan;-23707.44;5032306;28;20206;-73
2022/01/17 05:40:39;;;;;;;61.10;30.73;;;;;;;-3.62;nan;-23712.47;5050687;28;20178;-75
2022/01/17 05:43:04;;;;;;;58.77;28.73;;;;;;;-3.36;nan;-23719.81;5025065;28;20180;-74
2022/01/17 05:45:30;;;;;;;55.47;26.43;;;;;;;-3.32;nan;-23720.81;5050912;28;20252;-74
2022/01/17 05:47:55;;;;;;;58.60;29.07;;;;;;;-3.46;nan;-23716.78;5046301;28;20182;-72
2022/01/17 05:50:20;;;;;;;60.90;29.37;;;;;;;-3.56;nan;-23714.06;5048948;28;20190;-77
2022/01/17 05:52:46;;;;;;;56.90;28.63;;;;;;;-3.00;nan;-23730.03;5054310;28;20222;-78
2022/01/17 05:55:14;;;;;;;62.93;28.93;;;;;;;-3.42;nan;-23717.94;5054585;28;20547;-75
2022/01/17 05:57:40;;;;;;;69.17;32.33;;;;;;;-3.03;nan;-23729.00;5037317;28;20283;-75
2022/01/17 06:00:09;;;;;;;80.90;36.23;;;;;;;-3.76;nan;-23708.31;5055088;28;20609;-78
2022/01/17 06:02:34;;;;;;;78.00;36.17;;;;;;;-3.71;nan;-23709.75;5036385;28;20618;-77
2022/01/17 06:05:00;;;;;;;72.17;33.97;;;;;;;-3.51;nan;-23715.50;5054686;28;20163;-73
2022/01/17 06:07:25;;;;;;;71.67;34.87;;;;;;;-3.38;nan;-23719.09;5054500;28;20179;-75
2022/01/17 06:09:50;;;;;;;79.87;35.60;;;;;;;-3.04;nan;-23728.72;5054746;28;20175;-75
2022/01/17 06:12:16;;;;;;;71.97;34.27;;;;;;;-3.64;nan;-23711.91;5052813;28;20218;-73
2022/01/17 06:14:41;;;;;;;63.43;31.40;;;;;;;-3.42;nan;-23717.94;5053827;28;20639;-75
2022/01/17 06:17:07;;;;;;;70.77;32.60;;;;;;;-3.08;nan;-23727.72;5036139;28;20190;-74
2022/01/17 06:19:33;;;;;;;65.80;31.53;;;;;;;-2.98;nan;-23730.59;5051875;28;20319;-72
2022/01/17 06:21:58;;;;;;;78.23;35.30;;;;;;;-2.94;nan;-23731.75;5049320;28;20328;-74
2022/01/17 06:24:24;;;;;;;69.33;35.17;;;;;;;-2.87;nan;-23733.63;5053458;28;20273;-74
2022/01/17 06:26:50;;;;;;;66.60;33.47;;;;;;;-2.67;nan;-23739.50;5053325;28;20272;-73
2022/01/17 06:29:17;;;;;;;66.23;33.30;;;;;;;-2.80;nan;-23735.78;5038775;28;20757;-74
2022/01/17 06:31:43;;;;;;;75.37;34.47;;;;;;;-2.80;nan;-23735.78;5038630;28;20197;-76
2022/01/17 06:34:10;;;;;;;68.03;33.70;;;;;;;-2.56;nan;-23742.53;5036911;28;20269;-75
2022/01/17 06:36:36;;;;;;;64.67;32.07;;;;;;;-2.33;nan;-23749.13;5037019;28;20640;-75
2022/01/17 06:39:03;;;;;;;61.77;31.80;;;;;;;-2.20;nan;-23752.72;5040295;28;20245;-76
2022/01/17 06:41:29;;;;;;;59.60;29.03;;;;;;;-2.68;nan;-23739.22;5045158;28;20182;-74
2022/01/17 06:43:55;;;;;;;57.17;30.00;;;;;;;-2.45;nan;-23745.53;5036014;28;20289;-74
2022/01/17 06:46:20;;;;;;;57.67;28.43;;;;;;;-2.45;nan;-23745.53;5036262;28;20901;-74
2022/01/17 06:48:46;;;;;;;56.87;30.90;;;;;;;-2.24;nan;-23751.56;5038856;28;20712;-75
2022/01/17 06:51:14;;;;;;;58.03;30.80;;;;;;;-1.70;nan;-23766.78;5041346;28;20214;-76
2022/01/17 06:53:43;;;;;;;58.07;29.83;;;;;;;-1.74;nan;-23765.78;5047864;28;20242;-72
2022/01/17 06:56:10;;;;;;;60.23;30.60;;;;;;;-2.10;nan;-23755.59;5048750;28;20185;-74
2022/01/17 06:58:36;;;;;;;58.43;31.67;;;;;;;-2.12;nan;-23755.03;5034784;28;20233;-75
2022/01/17 07:01:04;;;;;;;61.27;30.10;;;;;;;-1.88;nan;-23761.91;5052897;28;20175;-74
2022/01/17 07:03:29;;;;;;;56.97;30.23;;;;;;;-1.55;nan;-23771.25;5052602;28;20191;-75
2022/01/17 07:05:55;;;;;;;54.57;28.13;;;;;;;-1.41;nan;-23775.13;5034672;28;20186;-73
2022/01/17 07:08:20;;;;;;;63.67;29.63;;;;;;;-1.35;nan;-23776.97;5052575;28;20634;-72
2022/01/17 07:10:46;;;;;;;53.37;29.50;;;;;;;-1.54;nan;-23771.38;5052640;28;20169;-74
2022/01/17 07:13:11;;;;;;;59.83;30.43;;;;;;;-1.66;nan;-23768.09;5046003;28;20695;-74
2022/01/17 07:15:37;;;;;;;60.47;29.27;;;;;;;-1.37;nan;-23776.41;5052605;28;20177;-73
2022/01/17 07:18:02;;;;;;;57.20;30.20;;;;;;;-0.70;nan;-23795.19;5052420;28;20233;-74
2022/01/17 07:20:28;;;;;;;60.40;28.83;;;;;;;-1.13;nan;-23783.00;5050926;28;20214;-75
2022/01/17 07:22:53;;;;;;;53.50;27.97;;;;;;;-0.70;nan;-23795.19;5051120;28;20174;-75
2022/01/17 07:25:19;;;;;;;53.80;27.80;;;;;;;-0.81;nan;-23792.03;5052219;28;20175;-75
2022/01/17 07:27:44;;;;;;;60.13;28.63;;;;;;;-0.62;nan;-23797.63;5052302;28;20622;-73
2022/01/17 07:30:11;;;;;;;50.23;27.47;;;;;;;-0.45;nan;-23802.50;5052083;28;20187;-74
2022/01/17 07:32:37;;;;;;;58.57;29.47;;;;;;;-0.15;nan;-23810.97;5052442;28;20531;-74
2022/01/17 07:35:05;;;;;;;61.37;29.97;;;;;;;0.04;nan;-23816.25;5052517;28;20171;-74
2022/01/17 07:37:30;;;;;;;68.53;29.30;;;;;;;-0.54;nan;-23799.78;5042854;28;20237;-74
2022/01/17 07:39:56;;;;;;;56.00;27.47;;;;;;;-0.53;nan;-23800.06;5041888;28;20181;-72
2022/01/17 07:42:21;;;;;;;52.33;28.03;;;;;;;0.18;nan;-23820.13;5045956;28;20186;-74
2022/01/17 07:44:53;;;;;;;47.10;26.07;;;;;;;0.10;nan;-23817.81;5040164;28;20224;-73
2022/01/17 07:47:27;;;;;;;47.33;26.03;;;;;;;-0.32;nan;-23806.09;5042211;28;20241;-72
2022/01/17 07:49:52;;;;;;;46.90;26.03;;;;;;;0.26;nan;-23822.56;5033901;28;20196;-72
2022/01/17 07:52:17;;;;;;;49.70;26.47;;;;;;;0.41;nan;-23826.72;5052516;28;20229;-74
2022/01/17 07:54:47;;;;;;;54.40;28.30;;;;;;;0.63;nan;-23832.84;5052118;28;20646;-74
2022/01/17 07:57:14;;;;;;;53.30;27.60;;;;;;;0.27;nan;-23822.69;5036784;28;20203;-73
2022/01/17 07:59:39;;;;;;;54.00;27.93;;;;;;;0.61;nan;-23832.28;5039962;28;20182;-73
2022/01/17 08:02:05;;;;;;;49.83;24.77;;;;;;;0.78;nan;-23837.16;5046152;28;20642;-74
2022/01/17 08:04:31;;;;;;;48.80;25.30;;;;;;;1.05;nan;-23844.72;5045088;28;20255;-72
2022/01/17 08:06:57;;;;;;;47.10;25.73;;;;;;;0.94;nan;-23841.59;5044970;28;20187;-73
2022/01/17 08:09:30;;;;;;;46.33;25.07;;;;;;;1.70;nan;-23863.16;5051627;28;20262;-74
2022/01/17 08:11:56;;;;;;;48.80;25.30;;;;;;;1.42;nan;-23855.31;5047206;28;20195;-72
2022/01/17 08:14:24;;;;;;;45.30;24.57;;;;;;;1.99;nan;-23871.31;5051211;28;20502;-72
2022/01/17 08:16:49;;;;;;;46.93;25.27;;;;;;;2.21;nan;-23877.75;5051080;28;20184;-74
2022/01/17 08:19:15;;;;;;;47.00;25.40;;;;;;;2.43;nan;-23883.75;5051753;28;20179;-73
2022/01/17 08:21:40;;;;;;;36.93;21.03;;;;;;;2.62;nan;-23889.31;5051600;28;20185;-75
2022/01/17 08:24:06;;;;;;;35.83;20.03;;;;;;;3.16;nan;-23904.44;5049902;28;20190;-74
2022/01/17 08:26:33;;;;;;;30.03;17.17;;;;;;;3.32;nan;-23909.00;5047377;28;20189;-73
2022/01/17 08:28:58;;;;;;;24.77;14.07;;;;;;;4.16;nan;-23932.50;5051309;28;20182;-74
2022/01/17 08:31:23;;;;;;;20.03;10.80;;;;;;;4.25;nan;-23935.06;5051549;28;20237;-74
2022/01/17 08:33:49;;;;;;;13.93;7.90;;;;;;;4.76;nan;-23949.44;5051570;28;20554;-72
2022/01/17 08:36:18;;;;;;;12.47;7.10;;;;;;;5.47;nan;-23969.34;5045009;28;20625;-73
2022/01/17 08:38:45;;;;;;;11.33;7.20;;;;;;;5.81;nan;-23979.00;5051846;28;20281;-73
2022/01/17 08:41:11;;;;;;;14.10;6.73;;;;;;;6.30;nan;-23992.78;5051609;28;20202;-74
2022/01/17 08:43:37;;;;;;;14.20;6.90;;;;;;;6.62;nan;-24001.88;5051646;28;20206;-73
2022/01/17 08:46:03;;;;;;;15.20;7.30;;;;;;;6.89;nan;-24009.25;5051118;28;20167;-73
2022/01/17 08:48:29;;;;;;;14.17;6.73;;;;;;;6.69;nan;-24003.59;5051460;28;20189;-73
2022/01/17 08:50:54;;;;;;;10.77;6.70;;;;;;;6.96;nan;-24011.38;5033807;28;20186;-74
2022/01/17 08:53:20;;;;;;;10.47;6.23;;;;;;;7.38;nan;-24023.00;5049381;28;20227;-71
2022/01/17 08:55:46;;;;;;;16.67;6.37;;;;;;;7.45;nan;-24025.13;5046945;28;20194;-72
2022/01/17 08:58:13;;;;;;;12.07;6.70;;;;;;;7.37;nan;-24022.88;5032866;28;20226;-73
2022/01/17 09:00:40;;;;;;;14.67;7.33;;;;;;;7.82;nan;-24035.47;5050837;28;20601;-74
2022/01/17 09:03:05;;;;;;;11.83;6.37;;;;;;;7.83;nan;-24035.63;5032839;28;20182;-72
2022/01/17 09:05:32;;;;;;;12.23;6.60;;;;;;;7.87;nan;-24036.91;5051311;28;20177;-73
2022/01/17 09:07:59;;;;;;;14.70;7.10;;;;;;;7.73;nan;-24032.94;5050638;28;20315;-73
2022/01/17 09:10:25;;;;;;;15.67;6.53;;;;;;;7.90;nan;-24037.75;5044507;28;20705;-73
2022/01/17 09:12:51;;;;;;;15.10;6.33;;;;;;;7.81;nan;-24035.22;5032968;28;20217;-73
2022/01/17 09:15:17;;;;;;;11.53;6.10;;;;;;;8.20;nan;-24045.97;5032678;28;20603;-72
2022/01/17 09:17:43;;;;;;;14.07;7.20;;;;;;;8.05;nan;-24041.72;5050868;28;20638;-73
2022/01/17 09:20:10;;;;;;;14.97;6.50;;;;;;;8.29;nan;-24048.50;5051136;28;20170;-74
2022/01/17 09:22:35;;;;;;;11.40;7.13;;;;;;;8.06;nan;-24042.16;5051098;28;20167;-73
2022/01/17 09:25:05;;;;;;;13.67;6.97;;;;;;;8.49;nan;-24054.03;5053711;28;20235;-72
2022/01/17 09:27:31;;;;;;;10.53;6.63;;;;;;;8.60;nan;-24057.28;5057884;28;20177;-74
2022/01/17 09:29:56;;;;;;;12.33;6.90;;;;;;;8.34;nan;-24049.94;5057932;28;20179;-72
2022/01/17 09:32:21;;;;;;;13.30;6.73;;;;;;;8.54;nan;-24055.47;5057628;28;20166;-73
2022/01/17 09:34:47;;;;;;;11.97;7.10;;;;;;;8.56;nan;-24056.03;5057814;28;20177;-73
2022/01/17 09:37:12;;;;;;;13.93;6.57;;;;;;;8.62;nan;-24057.72;5057588;28;20234;-73
2022/01/17 09:39:38;;;;;;;10.53;5.50;;;;;;;8.80;nan;-24062.94;5057926;28;20166;-74
2022/01/17 09:42:08;;;;;;;9.77;5.33;;;;;;;8.85;nan;-24064.22;5057953;28;20699;-72
2022/01/17 09:44:34;;;;;;;11.03;6.20;;;;;;;9.35;nan;-24078.09;5051125;28;20704;-73
2022/01/17 09:47:03;;;;;;;8.63;5.30;;;;;;;9.42;nan;-24080.06;5057536;28;20487;-74
2022/01/17 09:52:26;;;;;;;12.47;5.50;;;;;;;9.37;nan;-24078.66;5046365;28;20282;-74
2022/01/17 09:54:53;;;;;;;10.40;5.73;;;;;;;9.30;nan;-24076.81;5050348;28;20186;-74
2022/01/17 09:57:20;;;;;;;14.30;5.67;;;;;;;9.63;nan;-24086.00;5043027;28;20271;-73
2022/01/17 09:59:47;;;;;;;18.20;6.23;;;;;;;9.69;nan;-24087.84;5042320;28;20179;-74
2022/01/17 10:02:16;;;;;;;11.53;5.40;;;;;;;9.43;nan;-24080.34;5053127;28;20220;-74
2022/01/17 10:04:42;;;;;;;16.73;5.13;;;;;;;9.74;nan;-24089.09;5050013;28;20198;-75
2022/01/17 10:07:08;;;;;;;12.40;5.73;;;;;;;9.67;nan;-24087.28;5045231;28;20187;-73
2022/01/17 10:09:35;;;;;;;7.40;5.03;;;;;;;9.87;nan;-24092.78;5028541;28;20214;-74
2022/01/17 10:12:06;;;;;;;9.60;5.10;;;;;;;9.82;nan;-24091.22;5044341;28;20261;-74
2022/01/17 10:14:44;;;;;;;15.20;5.57;;;;;;;9.76;nan;-24089.81;5051675;28;20236;-73
2022/01/17 10:17:16;;;;;;;10.20;5.43;;;;;;;9.82;nan;-24091.22;5046910;28;20241;-74
2022/01/17 10:19:44;;;;;;;8.83;5.13;;;;;;;10.03;nan;-24097.16;5033383;28;20271;-75
2022/01/17 10:22:16;;;;;;;7.77;5.07;;;;;;;10.26;nan;-24103.66;5045128;28;20179;-76
2022/01/17 10:25:15;;;;;;;10.93;5.13;;;;;;;9.85;nan;-24092.06;5053612;28;20174;-76
2022/01/17 10:35:42;;;;;;;7.45;5.05;;;;;;;10.29;nan;-24104.50;5012976;28;20582;-73
2022/01/17 10:38:10;;;;;;;8.27;5.05;;;;;;;10.18;nan;-24101.41;5008625;28;20278;-73
2022/01/17 10:40:45;;;;;;;8.98;5.35;;;;;;;9.99;nan;-24096.03;5029678;28;20627;-72
2022/01/17 10:43:28;;;;;;;9.48;5.43;;;;;;;10.36;nan;-24106.34;5052134;28;20208;-73
2022/01/17 10:45:56;;;;;;;6.75;5.13;;;;;;;9.83;nan;-24091.66;5045139;28;20183;-72
2022/01/17 10:48:45;;;;;;;9.77;4.95;;;;;;;10.67;nan;-24114.94;5052026;28;20178;-73
2022/01/17 10:51:13;;;;;;;13.95;5.35;;;;;;;10.30;nan;-24104.78;5051547;28;20697;-73
2022/01/17 10:53:40;;;;;;;10.80;5.55;;;;;;;10.23;nan;-24102.66;5050894;28;20226;-73
2022/01/17 10:56:08;;;;;;;13.35;5.10;;;;;;;10.50;nan;-24110.28;5051970;28;20219;-73
2022/01/17 10:58:37;;;;;;;13.25;5.00;;;;;;;10.78;nan;-24118.03;5032877;28;20568;-72
2022/01/17 11:01:16;;;;;;;9.27;4.72;;;;;;;10.92;nan;-24122.00;5052320;28;20166;-73
2022/01/17 11:03:44;;;;;;;9.30;5.25;;;;;;;10.38;nan;-24106.91;5052989;28;20209;-72
2022/01/17 11:06:13;;;;;;;9.55;5.30;;;;;;;10.30;nan;-24104.78;5052924;28;20174;-72
2022/01/17 11:08:40;;;;;;;8.43;5.22;;;;;;;10.62;nan;-24113.81;5052452;28;20167;-73
2022/01/17 11:11:09;;;;;;;8.10;5.25;;;;;;;10.63;nan;-24114.09;5051234;28;20167;-72
2022/01/17 11:13:38;;;;;;;8.38;4.68;;;;;;;10.68;nan;-24115.22;5047636;28;20186;-72
2022/01/17 11:16:13;;;;;;;10.70;5.07;;;;;;;10.30;nan;-24104.66;5052067;28;20269;-72
2022/01/17 11:18:43;;;;;;;6.82;4.40;;;;;;;10.71;nan;-24116.22;5051052;28;20201;-72
2022/01/17 11:21:11;;;;;;;10.68;5.43;;;;;;;10.77;nan;-24117.78;5048908;28;20179;-72
2022/01/17 11:23:48;;;;;;;16.75;4.68;;;;;;;10.36;nan;-24106.47;5028610;28;20408;-72
2022/01/17 11:26:15;;;;;;;15.10;4.47;;;;;;;10.59;nan;-24112.97;5047016;28;20186;-72
2022/01/17 11:28:42;;;;;;;23.67;5.50;;;;;;;10.64;nan;-24114.25;5050494;28;20175;-73
2022/01/17 11:31:14;;;;;;;29.25;4.90;;;;;;;10.51;nan;-24110.56;5040826;28;20187;-73
2022/01/17 11:33:41;;;;;;;17.00;5.15;;;;;;;10.40;nan;-24107.63;5043374;28;20971;-73
2022/01/17 11:36:07;;;;;;;19.98;4.90;;;;;;;10.74;nan;-24117.06;5050880;28;20193;-72
2022/01/17 11:38:39;;;;;;;24.90;5.50;;;;;;;10.44;nan;-24108.75;5052552;28;20206;-72
2022/01/17 11:41:19;;;;;;;16.85;5.05;;;;;;;10.46;nan;-24109.31;5052216;28;20611;-73
2022/01/17 11:43:55;;;;;;;13.63;5.00;;;;;;;11.02;nan;-24124.97;5051768;28;20210;-73
2022/01/17 11:46:25;;;;;;;12.00;4.60;;;;;;;11.04;nan;-24125.38;5051717;28;20167;-72
2022/01/17 11:48:51;;;;;;;7.75;4.55;;;;;;;10.94;nan;-24122.56;5044328;28;20225;-73
2022/01/17 11:51:18;;;;;;;10.13;4.38;;;;;;;11.07;nan;-24126.22;5051375;28;20185;-71
2022/01/17 11:53:54;;;;;;;10.90;4.53;;;;;;;10.49;nan;-24110.16;5051795;28;20214;-71
2022/01/17 11:56:38;;;;;;;8.45;4.97;;;;;;;10.72;nan;-24116.34;5052044;28;20233;-72
2022/01/17 11:59:28;;;;;;;9.93;4.70;;;;;;;11.03;nan;-24125.09;5047474;28;20202;-72
2022/01/17 12:02:22;;;;;;;13.23;4.30;;;;;;;11.05;nan;-24125.66;5031996;28;20179;-72